createdAt,value
2022-10-14T00:00:01.028Z,15.70
2022-10-14T00:01:01.420Z,15.67
2022-10-14T00:02:01.941Z,15.68
2022-10-14T00:03:02.881Z,15.67
2022-10-14T00:04:00.986Z,15.73
2022-10-14T00:05:01.122Z,15.72
2022-10-14T00:06:00.965Z,15.80
2022-10-14T00:07:01.037Z,15.70
2022-10-14T00:08:00.942Z,15.73
2022-10-14T00:09:00.928Z,15.70
2022-10-14T00:10:01.875Z,15.70
2022-10-14T00:11:01.879Z,15.80
2022-10-14T00:12:01.938Z,15.83
2022-10-14T00:13:00.942Z,15.76
2022-10-14T00:14:00.916Z,15.82
2022-10-14T00:15:00.886Z,15.84
2022-10-14T00:16:01.411Z,15.80
2022-10-14T00:17:01.046Z,15.80
2022-10-14T00:18:00.825Z,15.82
2022-10-14T00:19:00.818Z,15.92
2022-10-14T00:20:01.441Z,15.79
2022-10-14T00:21:01.892Z,15.82
2022-10-14T00:22:00.780Z,15.77
2022-10-14T00:23:01.410Z,15.82
2022-10-14T00:24:01.949Z,15.88
2022-10-14T00:25:00.810Z,15.82
2022-10-14T00:26:00.748Z,15.90
2022-10-14T00:27:00.726Z,15.90
2022-10-14T00:28:01.416Z,15.84
2022-10-14T00:29:00.780Z,15.92
2022-10-14T00:30:00.712Z,15.88
2022-10-14T00:31:00.694Z,15.88
2022-10-14T00:32:00.684Z,15.84
2022-10-14T00:33:00.718Z,15.91
2022-10-14T00:34:00.668Z,15.77
2022-10-14T00:35:00.651Z,15.86
2022-10-14T00:36:01.436Z,15.82
2022-10-14T00:37:00.641Z,15.82
2022-10-14T00:38:00.606Z,15.84
2022-10-14T00:39:02.419Z,15.88
2022-10-14T00:40:01.425Z,15.84
2022-10-14T00:41:01.432Z,15.83
2022-10-14T00:42:00.560Z,15.82
2022-10-14T00:43:01.491Z,15.86
2022-10-14T00:44:02.406Z,15.76
2022-10-14T00:45:02.409Z,15.79
2022-10-14T00:46:00.534Z,15.84
2022-10-14T00:47:01.427Z,15.77
2022-10-14T00:48:01.362Z,15.84
2022-10-14T00:49:00.550Z,15.72
2022-10-14T00:50:02.395Z,15.80
2022-10-14T00:51:00.504Z,15.77
2022-10-14T00:52:00.512Z,15.76
2022-10-14T00:53:00.436Z,15.67
2022-10-14T00:54:00.434Z,15.80
2022-10-14T00:55:00.491Z,15.70
2022-10-14T00:56:00.452Z,15.79
2022-10-14T00:57:01.386Z,15.82
2022-10-14T00:58:00.431Z,15.84
2022-10-14T00:59:00.408Z,15.82
2022-10-14T01:00:01.375Z,15.84
2022-10-14T01:01:01.401Z,15.73
2022-10-14T01:02:01.076Z,15.84
2022-10-14T01:03:01.927Z,15.70
2022-10-14T01:04:01.892Z,15.79
2022-10-14T01:05:00.346Z,15.83
2022-10-14T01:06:00.312Z,15.82
2022-10-14T01:07:00.853Z,15.86
2022-10-14T01:08:01.888Z,15.84
2022-10-14T01:09:00.323Z,15.83
2022-10-14T01:10:00.254Z,15.82
2022-10-14T01:11:00.438Z,15.86
2022-10-14T01:12:26.972Z,15.86
2022-10-14T01:13:00.217Z,15.80
2022-10-14T01:14:00.204Z,15.80
2022-10-14T01:15:00.229Z,15.88
2022-10-14T01:16:00.243Z,15.84
2022-10-14T01:17:00.886Z,15.84
2022-10-14T01:18:01.006Z,15.84
2022-10-14T01:19:00.152Z,15.79
2022-10-14T01:20:04.881Z,15.82
2022-10-14T01:21:01.934Z,15.84
2022-10-14T01:22:00.196Z,15.79
2022-10-14T01:23:00.977Z,15.86
2022-10-14T01:24:03.003Z,15.88
2022-10-14T01:25:00.948Z,15.86
2022-10-14T01:26:04.957Z,15.94
2022-10-14T01:27:01.851Z,15.90
2022-10-14T01:28:00.085Z,15.90
2022-10-14T01:29:00.201Z,15.83
2022-10-14T01:30:00.109Z,15.86
2022-10-14T01:31:00.026Z,15.90
2022-10-14T01:32:00.012Z,15.91
2022-10-14T01:33:01.871Z,15.86
2022-10-14T01:34:00.422Z,15.73
2022-10-14T01:34:59.990Z,15.84
2022-10-14T01:36:01.455Z,15.83
2022-10-14T01:36:59.959Z,15.76
2022-10-14T01:38:00.886Z,15.73
2022-10-14T01:39:00.870Z,15.72
2022-10-14T01:40:00.947Z,15.59
2022-10-14T01:41:05.981Z,15.55
2022-10-14T01:42:00.872Z,15.59
2022-10-14T01:42:59.885Z,15.61
2022-10-14T01:43:59.876Z,15.58
2022-10-14T01:45:00.979Z,15.59
2022-10-14T01:45:59.856Z,15.59
2022-10-14T01:47:03.844Z,15.61
2022-10-14T01:47:59.827Z,15.57
2022-10-14T01:49:01.378Z,15.47
2022-10-14T01:49:59.825Z,15.58
2022-10-14T01:51:00.332Z,15.61
2022-10-14T01:51:59.794Z,15.61
2022-10-14T01:53:00.367Z,15.59
2022-10-14T01:54:01.369Z,15.61
2022-10-14T01:54:59.931Z,15.62
2022-10-14T01:55:59.759Z,15.59
2022-10-14T01:56:59.726Z,15.65
2022-10-14T01:57:59.719Z,15.73
2022-10-14T01:58:59.705Z,15.68
2022-10-14T02:00:00.984Z,15.80
2022-10-14T02:00:59.684Z,15.72
2022-10-14T02:02:00.420Z,15.80
2022-10-14T02:02:59.666Z,15.82
2022-10-14T02:03:59.660Z,15.84
2022-10-14T02:05:00.364Z,15.80
2022-10-14T02:06:00.455Z,15.77
2022-10-14T02:07:00.340Z,15.83
2022-10-14T02:08:00.349Z,15.82
2022-10-14T02:08:59.612Z,15.86
2022-10-14T02:09:59.903Z,15.88
2022-10-14T02:11:02.444Z,15.92
2022-10-14T02:12:00.589Z,15.86
2022-10-14T02:12:59.572Z,15.92
2022-10-14T02:14:00.314Z,15.80
2022-10-14T02:14:59.537Z,15.84
2022-10-14T02:15:59.857Z,15.88
2022-10-14T02:17:00.393Z,15.95
2022-10-14T02:18:00.391Z,15.95
2022-10-14T02:18:59.870Z,15.95
2022-10-14T02:19:59.468Z,15.98
2022-10-14T02:20:59.501Z,15.97
2022-10-14T02:22:00.328Z,15.97
2022-10-14T02:23:01.538Z,16.04
2022-10-14T02:24:03.330Z,16.05
2022-10-14T02:24:59.414Z,16.05
2022-10-14T02:25:59.406Z,16.04
2022-10-14T02:26:59.401Z,15.98
2022-10-14T02:27:59.378Z,16.04
2022-10-14T02:28:59.492Z,15.98
2022-10-14T02:29:59.443Z,16.05
2022-10-14T02:31:00.327Z,16.10
2022-10-14T02:31:59.348Z,16.00
2022-10-14T02:32:59.334Z,16.05
2022-10-14T02:33:59.314Z,16.00
2022-10-14T02:34:59.309Z,15.98
2022-10-14T02:35:59.343Z,16.05
2022-10-14T02:36:59.284Z,16.08
2022-10-14T02:38:03.930Z,16.12
2022-10-14T02:38:59.334Z,16.05
2022-10-14T02:39:59.834Z,16.04
2022-10-14T02:40:59.241Z,16.08
2022-10-14T02:41:59.231Z,16.09
2022-10-14T02:42:59.264Z,16.08
2022-10-14T02:43:59.204Z,16.12
2022-10-14T02:44:59.267Z,16.12
2022-10-14T02:45:59.186Z,16.09
2022-10-14T02:46:59.175Z,16.13
2022-10-14T02:47:59.244Z,16.09
2022-10-14T02:48:59.158Z,16.13
2022-10-14T02:49:59.147Z,16.09
2022-10-14T02:50:59.128Z,16.09
2022-10-14T02:51:59.400Z,16.15
2022-10-14T02:52:59.797Z,16.13
2022-10-14T02:53:59.119Z,16.10
2022-10-14T02:54:59.135Z,16.12
2022-10-14T02:55:59.077Z,16.09
2022-10-14T02:56:59.058Z,16.08
2022-10-14T02:57:59.815Z,16.10
2022-10-14T02:58:59.063Z,16.12
2022-10-14T02:59:59.137Z,16.09
2022-10-14T03:00:59.085Z,16.13
2022-10-14T03:01:59.076Z,16.16
2022-10-14T03:02:59.010Z,16.17
2022-10-14T03:04:01.957Z,16.16
2022-10-14T03:04:59.398Z,16.12
2022-10-14T03:06:01.913Z,16.04
2022-10-14T03:07:00.800Z,16.12
2022-10-14T03:07:59.844Z,16.09
2022-10-14T03:08:58.940Z,16.10
2022-10-14T03:09:58.997Z,16.13
2022-10-14T03:10:58.992Z,16.10
2022-10-14T03:11:59.800Z,16.12
2022-10-14T03:12:59.910Z,16.09
2022-10-14T03:13:59.815Z,16.13
2022-10-14T03:14:58.906Z,16.12
2022-10-14T03:15:59.355Z,16.09
2022-10-14T03:16:58.850Z,16.10
2022-10-14T03:17:58.831Z,16.05
2022-10-14T03:18:58.826Z,16.12
2022-10-14T03:19:58.805Z,16.12
2022-10-14T03:20:58.792Z,16.09
2022-10-14T03:21:58.844Z,16.13
2022-10-14T03:22:58.777Z,16.08
2022-10-14T03:23:58.763Z,16.02
2022-10-14T03:24:58.808Z,16.02
2022-10-14T03:26:00.336Z,15.98
2022-10-14T03:26:58.837Z,15.95
2022-10-14T03:27:58.716Z,15.98
2022-10-14T03:28:58.818Z,15.94
2022-10-14T03:29:59.323Z,15.95
2022-10-14T03:30:58.703Z,15.98
2022-10-14T03:31:59.321Z,16.00
2022-10-14T03:32:58.730Z,15.95
2022-10-14T03:33:58.654Z,15.94
2022-10-14T03:34:58.641Z,15.97
2022-10-14T03:35:59.327Z,15.97
2022-10-14T03:36:58.637Z,15.97
2022-10-14T03:38:03.301Z,15.95
2022-10-14T03:38:58.608Z,16.00
2022-10-14T03:39:58.583Z,15.95
2022-10-14T03:40:58.606Z,15.97
2022-10-14T03:41:58.650Z,15.97
2022-10-14T03:42:58.607Z,16.04
2022-10-14T03:43:59.780Z,16.01
2022-10-14T03:44:58.526Z,16.00
2022-10-14T03:45:58.550Z,16.09
2022-10-14T03:46:59.286Z,16.10
2022-10-14T03:47:58.530Z,16.02
2022-10-14T03:48:58.523Z,16.08
2022-10-14T03:49:59.791Z,16.10
2022-10-14T03:50:58.461Z,16.02
2022-10-14T03:51:59.283Z,16.12
2022-10-14T03:52:58.442Z,16.04
2022-10-14T03:53:59.482Z,16.04
2022-10-14T03:54:59.319Z,16.12
2022-10-14T03:55:58.406Z,16.05
2022-10-14T03:56:58.403Z,15.98
2022-10-14T03:57:58.402Z,16.02
2022-10-14T03:58:58.388Z,16.01
2022-10-14T03:59:58.361Z,16.12
2022-10-14T04:00:58.503Z,16.04
2022-10-14T04:01:58.418Z,16.00
2022-10-14T04:02:59.300Z,16.01
2022-10-14T04:03:59.300Z,16.02
2022-10-14T04:05:00.927Z,16.00
2022-10-14T04:05:59.820Z,15.94
2022-10-14T04:06:58.324Z,15.97
2022-10-14T04:07:58.274Z,15.97
2022-10-14T04:08:58.319Z,16.05
2022-10-14T04:09:58.255Z,16.01
2022-10-14T04:10:58.250Z,15.95
2022-10-14T04:11:58.229Z,15.86
2022-10-14T04:12:58.774Z,15.92
2022-10-14T04:13:58.297Z,15.94
2022-10-14T04:14:58.200Z,15.91
2022-10-14T04:15:58.192Z,15.94
2022-10-14T04:16:58.200Z,15.95
2022-10-14T04:17:58.165Z,15.94
2022-10-14T04:18:58.176Z,15.98
2022-10-14T04:19:58.322Z,16.01
2022-10-14T04:20:58.163Z,15.97
2022-10-14T04:21:58.767Z,16.01
2022-10-14T04:22:58.755Z,15.92
2022-10-14T04:23:58.891Z,15.97
2022-10-14T04:24:58.155Z,15.97
2022-10-14T04:25:58.127Z,15.90
2022-10-14T04:26:58.128Z,15.92
2022-10-14T04:27:58.055Z,15.95
2022-10-14T04:28:58.154Z,16.02
2022-10-14T04:29:58.047Z,16.00
2022-10-14T04:30:58.029Z,16.04
2022-10-14T04:31:58.012Z,15.97
2022-10-14T04:32:58.062Z,15.82
2022-10-14T04:33:58.002Z,15.95
2022-10-14T04:34:58.762Z,15.98
2022-10-14T04:35:57.973Z,15.97
2022-10-14T04:36:57.964Z,16.04
2022-10-14T04:37:57.940Z,15.98
2022-10-14T04:38:57.980Z,15.94
2022-10-14T04:39:57.972Z,15.97
2022-10-14T04:40:57.910Z,16.00
2022-10-14T04:41:57.899Z,16.00
2022-10-14T04:42:57.964Z,16.02
2022-10-14T04:43:57.875Z,15.92
2022-10-14T04:44:57.875Z,16.00
2022-10-14T04:45:57.873Z,16.02
2022-10-14T04:46:57.897Z,15.98
2022-10-14T04:47:57.841Z,15.92
2022-10-14T04:48:57.867Z,15.91
2022-10-14T04:49:58.757Z,15.90
2022-10-14T04:50:58.312Z,15.91
2022-10-14T04:51:57.787Z,15.90
2022-10-14T04:52:57.772Z,15.88
2022-10-14T04:53:57.773Z,15.84
2022-10-14T04:54:57.809Z,15.88
2022-10-14T04:55:57.745Z,15.83
2022-10-14T04:56:57.739Z,15.84
2022-10-14T04:57:57.747Z,15.79
2022-10-14T04:58:57.706Z,15.77
2022-10-14T04:59:57.766Z,15.82
2022-10-14T05:00:58.238Z,15.88
2022-10-14T05:01:57.774Z,15.90
2022-10-14T05:02:57.677Z,15.91
2022-10-14T05:03:57.663Z,15.88
2022-10-14T05:04:57.686Z,15.82
2022-10-14T05:05:57.698Z,15.86
2022-10-14T05:06:57.673Z,15.76
2022-10-14T05:07:57.662Z,15.80
2022-10-14T05:08:57.783Z,15.92
2022-10-14T05:09:57.667Z,15.84
2022-10-14T05:10:57.575Z,15.86
2022-10-14T05:11:58.246Z,15.83
2022-10-14T05:12:57.565Z,15.80
2022-10-14T05:13:57.565Z,15.77
2022-10-14T05:14:57.532Z,15.90
2022-10-14T05:15:57.574Z,15.91
2022-10-14T05:16:57.586Z,15.80
2022-10-14T05:17:57.530Z,15.80
2022-10-14T05:18:57.541Z,15.75
2022-10-14T05:19:57.511Z,15.68
2022-10-14T05:20:57.464Z,15.70
2022-10-14T05:21:57.463Z,15.70
2022-10-14T05:22:57.442Z,15.72
2022-10-14T05:23:57.505Z,15.61
2022-10-14T05:24:57.423Z,15.70
2022-10-14T05:25:57.450Z,15.58
2022-10-14T05:26:57.426Z,15.67
2022-10-14T05:27:57.385Z,15.62
2022-10-14T05:28:57.436Z,15.57
2022-10-14T05:29:57.443Z,15.57
2022-10-14T05:30:58.228Z,15.58
2022-10-14T05:31:57.351Z,15.52
2022-10-14T05:32:57.360Z,15.46
2022-10-14T05:33:57.362Z,15.51
2022-10-14T05:34:57.315Z,15.51
2022-10-14T05:35:59.604Z,15.54
2022-10-14T05:36:57.344Z,15.55
2022-10-14T05:38:01.943Z,15.58
2022-10-14T05:38:57.269Z,15.49
2022-10-14T05:39:57.258Z,15.51
2022-10-14T05:40:57.317Z,15.52
2022-10-14T05:41:57.247Z,15.57
2022-10-14T05:42:57.227Z,15.54
2022-10-14T05:43:57.210Z,15.55
2022-10-14T05:44:57.196Z,15.47
2022-10-14T05:45:57.302Z,15.40
2022-10-14T05:46:57.196Z,15.49
2022-10-14T05:47:57.169Z,15.49
2022-10-14T05:48:57.164Z,15.44
2022-10-14T05:49:57.754Z,15.40
2022-10-14T05:50:57.133Z,15.46
2022-10-14T05:51:57.189Z,15.43
2022-10-14T05:52:57.111Z,15.46
2022-10-14T05:53:57.153Z,15.43
2022-10-14T05:54:57.111Z,15.49
2022-10-14T05:55:57.108Z,15.47
2022-10-14T05:56:57.063Z,15.39
2022-10-14T05:57:57.055Z,15.40
2022-10-14T05:58:57.092Z,15.39
2022-10-14T05:59:57.038Z,15.36
2022-10-14T06:00:57.018Z,15.33
2022-10-14T06:01:57.088Z,15.33
2022-10-14T06:02:57.033Z,15.33
2022-10-14T06:03:57.718Z,15.33
2022-10-14T06:04:57.041Z,15.27
2022-10-14T06:05:57.034Z,15.33
2022-10-14T06:06:56.975Z,15.37
2022-10-14T06:07:56.943Z,15.31
2022-10-14T06:08:57.048Z,15.36
2022-10-14T06:09:56.927Z,15.36
2022-10-14T06:10:56.956Z,15.33
2022-10-14T06:11:56.920Z,15.36
2022-10-14T06:12:56.886Z,15.25
2022-10-14T06:13:56.895Z,15.37
2022-10-14T06:14:56.890Z,15.27
2022-10-14T06:15:57.263Z,15.29
2022-10-14T06:16:57.781Z,15.36
2022-10-14T06:17:57.253Z,15.25
2022-10-14T06:18:56.824Z,15.29
2022-10-14T06:19:57.730Z,15.36
2022-10-14T06:20:56.869Z,15.28
2022-10-14T06:21:57.268Z,15.37
2022-10-14T06:22:56.780Z,15.33
2022-10-14T06:23:56.773Z,15.40
2022-10-14T06:25:00.360Z,15.43
2022-10-14T06:25:57.262Z,15.37
2022-10-14T06:26:56.734Z,15.43
2022-10-14T06:27:57.704Z,15.44
2022-10-14T06:28:56.833Z,15.44
2022-10-14T06:29:56.721Z,15.42
2022-10-14T06:30:56.699Z,15.44
2022-10-14T06:31:56.699Z,15.47
2022-10-14T06:32:57.204Z,15.44
2022-10-14T06:33:56.712Z,15.49
2022-10-14T06:34:56.665Z,15.44
2022-10-14T06:35:56.679Z,15.52
2022-10-14T06:37:01.963Z,15.51
2022-10-14T06:37:57.626Z,15.57
2022-10-14T06:38:57.198Z,15.59
2022-10-14T06:39:57.213Z,15.65
2022-10-14T06:40:56.712Z,15.68
2022-10-14T06:41:56.562Z,15.75
2022-10-14T06:42:56.551Z,15.77
2022-10-14T06:43:56.580Z,15.75
2022-10-14T06:44:56.537Z,15.77
2022-10-14T06:45:56.527Z,15.86
2022-10-14T06:46:56.577Z,15.84
2022-10-14T06:47:56.496Z,15.84
2022-10-14T06:48:56.494Z,15.80
2022-10-14T06:49:57.202Z,15.92
2022-10-14T06:50:56.467Z,15.90
2022-10-14T06:51:56.500Z,16.00
2022-10-14T06:52:56.509Z,15.95
2022-10-14T06:53:57.230Z,16.08
2022-10-14T06:54:56.492Z,16.04
2022-10-14T06:55:56.422Z,16.12
2022-10-14T06:56:57.202Z,16.09
2022-10-14T06:57:56.390Z,16.13
2022-10-14T06:58:56.374Z,16.17
2022-10-14T06:59:56.372Z,16.16
2022-10-14T07:01:56.503Z,16.24
2022-10-14T07:02:56.731Z,16.21
2022-10-14T07:03:56.884Z,16.33
2022-10-14T07:04:56.312Z,16.32
2022-10-14T07:05:56.733Z,16.33
2022-10-14T07:06:57.249Z,16.46
2022-10-14T07:07:56.779Z,16.47
2022-10-14T07:08:56.278Z,16.47
2022-10-14T07:09:56.285Z,16.46
2022-10-14T07:10:56.312Z,16.46
2022-10-14T07:11:56.229Z,16.53
2022-10-14T07:12:57.248Z,16.58
2022-10-14T07:13:56.222Z,16.64
2022-10-14T07:14:56.233Z,16.58
2022-10-14T07:15:56.732Z,16.60
2022-10-14T07:16:56.678Z,16.65
2022-10-14T07:17:56.191Z,16.83
2022-10-14T07:18:56.762Z,16.75
2022-10-14T07:19:56.140Z,16.75
2022-10-14T07:20:56.702Z,16.74
2022-10-14T07:21:56.681Z,16.75
2022-10-14T07:22:56.122Z,16.84
2022-10-14T07:23:56.163Z,16.93
2022-10-14T07:24:56.225Z,16.84
2022-10-14T07:25:56.107Z,16.96
2022-10-14T07:26:56.115Z,17.01
2022-10-14T07:27:56.051Z,17.04
2022-10-14T07:28:56.120Z,16.97
2022-10-14T07:29:56.127Z,16.99
2022-10-14T07:30:56.020Z,16.93
2022-10-14T07:31:56.670Z,16.97
2022-10-14T07:32:56.039Z,17.05
2022-10-14T07:33:55.985Z,17.04
2022-10-14T07:34:55.993Z,17.02
2022-10-14T07:35:56.040Z,17.08
2022-10-14T07:36:56.670Z,17.12
2022-10-14T07:37:55.951Z,17.12
2022-10-14T07:38:55.940Z,17.19
2022-10-14T07:39:56.233Z,17.24
2022-10-14T07:40:55.925Z,17.20
2022-10-14T07:41:55.930Z,17.24
2022-10-14T07:42:56.670Z,17.29
2022-10-14T07:43:55.917Z,17.30
2022-10-14T07:44:56.678Z,17.38
2022-10-14T07:45:56.208Z,17.39
2022-10-14T07:46:56.669Z,17.44
2022-10-14T07:47:55.875Z,17.46
2022-10-14T07:48:57.939Z,17.45
2022-10-14T07:49:55.831Z,17.46
2022-10-14T07:50:55.829Z,17.52
2022-10-14T07:51:56.288Z,17.52
2022-10-14T07:53:00.273Z,17.56
2022-10-14T07:53:55.809Z,17.64
2022-10-14T07:54:55.756Z,17.60
2022-10-14T07:55:55.746Z,17.64
2022-10-14T07:56:56.226Z,17.60
2022-10-14T07:57:56.674Z,17.59
2022-10-14T07:58:55.711Z,17.63
2022-10-14T07:59:55.696Z,17.76
2022-10-14T08:00:57.759Z,17.74
2022-10-14T08:01:55.842Z,17.78
2022-10-14T08:02:55.669Z,17.85
2022-10-14T08:03:55.682Z,17.80
2022-10-14T08:05:04.019Z,17.76
2022-10-14T08:05:55.642Z,17.80
2022-10-14T08:06:55.629Z,17.82
2022-10-14T08:07:55.665Z,17.85
2022-10-14T08:08:55.654Z,17.86
2022-10-14T08:09:56.168Z,17.80
2022-10-14T08:10:56.169Z,18.00
2022-10-14T08:11:55.565Z,17.90
2022-10-14T08:12:55.555Z,17.87
2022-10-14T08:13:55.634Z,17.90
2022-10-14T08:14:55.534Z,17.87
2022-10-14T08:15:55.597Z,17.82
2022-10-14T08:16:55.530Z,17.87
2022-10-14T08:17:55.502Z,17.90
2022-10-14T08:18:55.493Z,17.94
2022-10-14T08:19:56.179Z,17.89
2022-10-14T08:20:56.190Z,17.89
2022-10-14T08:21:55.527Z,17.97
2022-10-14T08:22:55.444Z,17.94
2022-10-14T08:23:55.433Z,17.87
2022-10-14T08:24:55.466Z,17.97
2022-10-14T08:25:55.449Z,17.95
2022-10-14T08:26:55.405Z,17.92
2022-10-14T08:28:00.699Z,17.86
2022-10-14T08:28:55.465Z,17.86
2022-10-14T08:29:56.167Z,17.97
2022-10-14T08:30:55.370Z,17.92
2022-10-14T08:31:55.398Z,17.94
2022-10-14T08:32:55.337Z,17.98
2022-10-14T08:33:56.142Z,17.97
2022-10-14T08:34:56.168Z,18.01
2022-10-14T08:35:55.332Z,17.94
2022-10-14T08:36:55.324Z,18.03
2022-10-14T08:37:55.326Z,18.05
2022-10-14T08:38:55.403Z,18.08
2022-10-14T08:39:56.159Z,18.07
2022-10-14T08:40:55.899Z,18.08
2022-10-14T08:41:55.707Z,18.05
2022-10-14T08:42:56.219Z,18.08
2022-10-14T08:43:56.183Z,18.10
2022-10-14T08:44:56.139Z,18.20
2022-10-14T08:45:55.232Z,18.20
2022-10-14T08:46:55.205Z,18.34
2022-10-14T08:47:55.705Z,18.23
2022-10-14T08:48:55.660Z,18.33
2022-10-14T08:49:55.146Z,18.33
2022-10-14T08:50:55.917Z,18.40
2022-10-14T08:51:55.151Z,18.37
2022-10-14T08:52:55.117Z,18.34
2022-10-14T08:53:55.148Z,18.37
2022-10-14T08:54:55.093Z,18.33
2022-10-14T08:55:55.642Z,18.40
2022-10-14T08:56:55.075Z,18.35
2022-10-14T08:57:55.196Z,18.37
2022-10-14T08:58:55.053Z,18.43
2022-10-14T08:59:55.175Z,18.40
2022-10-14T09:00:55.068Z,18.47
2022-10-14T09:01:55.664Z,18.52
2022-10-14T09:02:55.091Z,18.50
2022-10-14T09:03:55.700Z,18.47
2022-10-14T09:04:54.987Z,18.55
2022-10-14T09:05:54.982Z,18.53
2022-10-14T09:06:55.002Z,18.50
2022-10-14T09:07:54.957Z,18.56
2022-10-14T09:08:55.023Z,18.58
2022-10-14T09:09:55.648Z,18.50
2022-10-14T09:10:55.644Z,18.63
2022-10-14T09:11:54.907Z,18.70
2022-10-14T09:12:54.928Z,18.65
2022-10-14T09:13:54.901Z,18.74
2022-10-14T09:14:54.884Z,18.73
2022-10-14T09:15:54.861Z,18.73
2022-10-14T09:16:55.627Z,18.74
2022-10-14T09:17:54.925Z,18.73
2022-10-14T09:18:55.090Z,18.68
2022-10-14T09:19:54.875Z,18.68
2022-10-14T09:20:54.844Z,18.71
2022-10-14T09:21:54.798Z,18.80
2022-10-14T09:22:54.845Z,18.74
2022-10-14T09:23:54.799Z,18.90
2022-10-14T09:24:54.805Z,18.84
2022-10-14T09:25:54.770Z,18.84
2022-10-14T09:26:54.770Z,18.83
2022-10-14T09:27:54.761Z,18.81
2022-10-14T09:28:55.697Z,18.83
2022-10-14T09:29:54.737Z,18.98
2022-10-14T09:30:55.620Z,18.98
2022-10-14T09:31:54.686Z,19.11
2022-10-14T09:32:55.642Z,19.12
2022-10-14T09:33:55.158Z,19.04
2022-10-14T09:34:55.640Z,19.09
2022-10-14T09:35:54.739Z,19.15
2022-10-14T09:36:54.635Z,19.14
2022-10-14T09:37:55.154Z,19.21
2022-10-14T09:38:54.610Z,19.26
2022-10-14T09:39:54.633Z,19.15
2022-10-14T09:40:54.628Z,19.14
2022-10-14T09:41:54.610Z,19.26
2022-10-14T09:42:54.584Z,19.24
2022-10-14T09:43:54.567Z,19.31
2022-10-14T09:44:54.634Z,19.15
2022-10-14T09:45:54.557Z,19.24
2022-10-14T09:46:55.304Z,19.22
2022-10-14T09:47:54.554Z,19.26
2022-10-14T09:48:54.505Z,19.34
2022-10-14T09:49:54.516Z,19.41
2022-10-14T09:50:54.506Z,19.40
2022-10-14T09:51:54.483Z,19.45
2022-10-14T09:52:54.629Z,19.49
2022-10-14T09:53:54.451Z,19.45
2022-10-14T09:54:54.435Z,19.62
2022-10-14T09:55:54.451Z,19.54
2022-10-14T09:56:55.115Z,19.45
2022-10-14T09:57:55.128Z,19.51
2022-10-14T09:58:54.387Z,19.49
2022-10-14T09:59:54.380Z,19.51
2022-10-14T10:00:54.398Z,19.54
2022-10-14T10:01:54.393Z,19.47
2022-10-14T10:02:54.356Z,19.39
2022-10-14T10:03:54.430Z,19.48
2022-10-14T10:04:54.332Z,19.56
2022-10-14T10:05:54.330Z,19.66
2022-10-14T10:06:54.315Z,19.62
2022-10-14T10:07:54.344Z,19.71
2022-10-14T10:08:54.310Z,19.74
2022-10-14T10:09:54.295Z,19.59
2022-10-14T10:10:54.256Z,19.66
2022-10-14T10:11:54.343Z,19.73
2022-10-14T10:12:54.626Z,19.86
2022-10-14T10:13:55.098Z,19.73
2022-10-14T10:14:54.223Z,19.88
2022-10-14T10:15:54.202Z,19.86
2022-10-14T10:16:55.103Z,19.88
2022-10-14T10:17:54.178Z,19.74
2022-10-14T10:18:54.621Z,19.74
2022-10-14T10:19:54.191Z,19.84
2022-10-14T10:20:54.151Z,19.79
2022-10-14T10:21:54.182Z,19.63
2022-10-14T10:22:54.126Z,19.73
2022-10-14T10:23:56.115Z,19.84
2022-10-14T10:24:54.124Z,19.86
2022-10-14T10:25:54.108Z,19.89
2022-10-14T10:26:54.637Z,19.92
2022-10-14T10:27:54.110Z,19.99
2022-10-14T10:28:54.154Z,19.99
2022-10-14T10:29:54.080Z,20.00
2022-10-14T10:30:54.200Z,20.03
2022-10-14T10:31:54.061Z,20.00
2022-10-14T10:32:54.011Z,19.95
2022-10-14T10:33:54.018Z,19.85
2022-10-14T10:34:53.992Z,19.89
2022-10-14T10:35:53.989Z,19.88
2022-10-14T10:36:54.093Z,19.89
2022-10-14T10:37:55.117Z,19.94
2022-10-14T10:38:54.592Z,19.76
2022-10-14T10:39:53.935Z,19.63
2022-10-14T10:40:54.631Z,19.73
2022-10-14T10:41:54.948Z,19.73
2022-10-14T10:42:53.901Z,19.84
2022-10-14T10:43:54.586Z,19.85
2022-10-14T10:44:53.880Z,19.88
2022-10-14T10:45:54.185Z,19.76
2022-10-14T10:46:53.894Z,19.81
2022-10-14T10:47:53.851Z,19.81
2022-10-14T10:48:53.852Z,19.91
2022-10-14T10:49:53.905Z,19.94
2022-10-14T10:50:54.596Z,19.99
2022-10-14T10:51:54.605Z,20.06
2022-10-14T10:52:53.816Z,20.06
2022-10-14T10:53:54.665Z,20.14
2022-10-14T10:54:54.732Z,20.22
2022-10-14T10:55:54.809Z,20.22
2022-10-14T10:56:53.791Z,20.18
2022-10-14T10:57:53.765Z,20.11
2022-10-14T10:58:53.730Z,20.03
2022-10-14T10:59:53.721Z,20.02
2022-10-14T11:00:53.713Z,20.07
2022-10-14T11:01:54.663Z,20.07
2022-10-14T11:02:53.716Z,20.02
2022-10-14T11:03:53.676Z,20.06
2022-10-14T11:04:55.589Z,20.16
2022-10-14T11:05:53.660Z,20.14
2022-10-14T11:06:53.652Z,20.16
2022-10-14T11:07:53.701Z,20.16
2022-10-14T11:08:53.615Z,20.16
2022-10-14T11:09:53.625Z,20.16
2022-10-14T11:10:53.604Z,20.21
2022-10-14T11:11:53.587Z,20.11
2022-10-14T11:12:53.599Z,20.07
2022-10-14T11:13:53.608Z,20.19
2022-10-14T11:14:53.562Z,20.19
2022-10-14T11:15:54.108Z,20.09
2022-10-14T11:16:54.149Z,20.13
2022-10-14T11:17:54.536Z,20.21
2022-10-14T11:18:53.546Z,20.13
2022-10-14T11:19:53.508Z,20.03
2022-10-14T11:20:54.486Z,19.84
2022-10-14T11:21:53.476Z,19.95
2022-10-14T11:22:53.512Z,19.99
2022-10-14T11:23:53.453Z,19.89
2022-10-14T11:24:53.446Z,20.02
2022-10-14T11:25:53.498Z,19.91
2022-10-14T11:26:53.430Z,20.02
2022-10-14T11:27:53.414Z,19.94
2022-10-14T11:28:53.499Z,19.95
2022-10-14T11:29:53.391Z,20.03
2022-10-14T11:30:54.064Z,20.11
2022-10-14T11:31:53.399Z,20.18
2022-10-14T11:32:53.346Z,20.19
2022-10-14T11:33:53.354Z,20.14
2022-10-14T11:34:53.351Z,20.34
2022-10-14T11:35:53.317Z,20.28
2022-10-14T11:36:53.354Z,20.26
2022-10-14T11:37:53.586Z,20.40
2022-10-14T11:38:53.281Z,20.39
2022-10-14T11:39:53.292Z,20.44
2022-10-14T11:40:53.296Z,20.48
2022-10-14T11:41:53.271Z,20.26
2022-10-14T11:42:53.238Z,20.34
2022-10-14T11:43:53.231Z,20.28
2022-10-14T11:44:53.292Z,20.29
2022-10-14T11:45:53.586Z,20.24
2022-10-14T11:46:53.196Z,20.37
2022-10-14T11:47:54.057Z,20.37
2022-10-14T11:48:53.169Z,20.40
2022-10-14T11:49:54.165Z,20.47
2022-10-14T11:50:53.170Z,20.37
2022-10-14T11:51:53.136Z,20.19
2022-10-14T11:52:53.145Z,20.36
2022-10-14T11:53:53.132Z,20.28
2022-10-14T11:54:53.111Z,20.40
2022-10-14T11:55:53.113Z,20.41
2022-10-14T11:56:53.091Z,20.39
2022-10-14T11:57:53.085Z,20.43
2022-10-14T11:58:53.074Z,20.31
2022-10-14T11:59:53.043Z,20.32
2022-10-14T12:00:53.033Z,20.40
2022-10-14T12:01:53.119Z,20.39
2022-10-14T12:02:53.136Z,20.28
2022-10-14T12:03:53.044Z,20.41
2022-10-14T12:04:52.999Z,20.36
2022-10-14T12:05:52.978Z,20.21
2022-10-14T12:06:52.967Z,20.43
2022-10-14T12:07:52.960Z,20.44
2022-10-14T12:08:52.965Z,20.50
2022-10-14T12:09:55.875Z,20.40
2022-10-14T12:10:52.939Z,20.51
2022-10-14T12:11:53.702Z,20.50
2022-10-14T12:12:52.957Z,20.62
2022-10-14T12:13:52.914Z,20.75
2022-10-14T12:14:52.879Z,20.74
2022-10-14T12:15:52.880Z,20.80
2022-10-14T12:16:53.113Z,20.78
2022-10-14T12:17:52.843Z,20.77
2022-10-14T12:18:52.836Z,20.78
2022-10-14T12:19:53.564Z,20.78
2022-10-14T12:20:52.812Z,20.75
2022-10-14T12:21:52.817Z,20.90
2022-10-14T12:22:52.811Z,20.80
2022-10-14T12:23:58.104Z,20.82
2022-10-14T12:24:53.574Z,20.87
2022-10-14T12:25:52.783Z,20.99
2022-10-14T12:26:52.747Z,21.05
2022-10-14T12:27:52.797Z,21.06
2022-10-14T12:28:54.174Z,21.09
2022-10-14T12:29:52.757Z,21.18
2022-10-14T12:30:52.724Z,21.12
2022-10-14T12:31:52.689Z,21.07
2022-10-14T12:32:52.847Z,21.06
2022-10-14T12:33:52.700Z,21.03
2022-10-14T12:34:52.754Z,21.00
2022-10-14T12:35:52.704Z,20.95
2022-10-14T12:36:52.660Z,20.88
2022-10-14T12:37:52.764Z,20.90
2022-10-14T12:38:52.623Z,20.82
2022-10-14T12:40:14.552Z,20.88
2022-10-14T12:40:52.847Z,20.93
2022-10-14T12:41:52.637Z,20.85
2022-10-14T12:42:53.728Z,20.80
2022-10-14T12:43:53.991Z,20.88
2022-10-14T12:44:55.006Z,20.81
2022-10-14T12:45:52.926Z,20.59
2022-10-14T12:46:52.685Z,20.63
2022-10-14T12:47:56.835Z,20.66
2022-10-14T12:48:52.663Z,20.62
2022-10-14T12:49:52.499Z,20.43
2022-10-14T12:50:53.068Z,20.50
2022-10-14T12:51:52.497Z,20.67
2022-10-14T12:52:55.038Z,20.69